sensor_id;sensor_type;location;lat;lon;timestamp;temperature;humidity
42097;DHT22;27754;45.414;11.084;2022-09-06T00:00:12;22.50;77.50
42097;DHT22;27754;45.414;11.084;2022-09-06T00:02:40;22.40;77.70
42097;DHT22;27754;45.414;11.084;2022-09-06T00:05:08;22.40;77.90
42097;DHT22;27754;45.414;11.084;2022-09-06T00:07:36;22.40;77.90
42097;DHT22;27754;45.414;11.084;2022-09-06T00:10:04;22.40;77.80
42097;DHT22;27754;45.414;11.084;2022-09-06T00:12:31;22.30;77.80
42097;DHT22;27754;45.414;11.084;2022-09-06T00:14:58;22.40;77.90
42097;DHT22;27754;45.414;11.084;2022-09-06T00:17:25;22.30;78.20
42097;DHT22;27754;45.414;11.084;2022-09-06T00:19:52;22.20;78.30
42097;DHT22;27754;45.414;11.084;2022-09-06T00:22:19;22.20;78.40
42097;DHT22;27754;45.414;11.084;2022-09-06T00:24:46;22.20;78.50
42097;DHT22;27754;45.414;11.084;2022-09-06T00:27:13;22.30;78.40
42097;DHT22;27754;45.414;11.084;2022-09-06T00:29:40;22.30;78.30
42097;DHT22;27754;45.414;11.084;2022-09-06T00:32:07;22.20;78.40
42097;DHT22;27754;45.414;11.084;2022-09-06T00:34:34;22.20;78.50
42097;DHT22;27754;45.414;11.084;2022-09-06T00:37:01;22.20;78.40
42097;DHT22;27754;45.414;11.084;2022-09-06T00:39:28;22.20;78.40
42097;DHT22;27754;45.414;11.084;2022-09-06T00:41:55;22.30;78.50
42097;DHT22;27754;45.414;11.084;2022-09-06T00:44:22;22.20;78.80
42097;DHT22;27754;45.414;11.084;2022-09-06T00:46:51;22.10;79.10
42097;DHT22;27754;45.414;11.084;2022-09-06T00:49:25;22.20;78.80
42097;DHT22;27754;45.414;11.084;2022-09-06T00:52:03;22.10;78.80
42097;DHT22;27754;45.414;11.084;2022-09-06T00:54:31;22.10;78.80
42097;DHT22;27754;45.414;11.084;2022-09-06T00:56:59;22.10;78.70
42097;DHT22;27754;45.414;11.084;2022-09-06T00:59:29;22.00;79.00
42097;DHT22;27754;45.414;11.084;2022-09-06T01:01:57;21.90;79.40
42097;DHT22;27754;45.414;11.084;2022-09-06T01:04:25;21.90;79.50
42097;DHT22;27754;45.414;11.084;2022-09-06T01:10:07;22.00;79.50
42097;DHT22;27754;45.414;11.084;2022-09-06T01:29:05;21.80;80.60
42097;DHT22;27754;45.414;11.084;2022-09-06T01:31:46;21.80;80.60
42097;DHT22;27754;45.414;11.084;2022-09-06T01:34:30;21.80;80.70
42097;DHT22;27754;45.414;11.084;2022-09-06T01:37:07;21.80;80.70
42097;DHT22;27754;45.414;11.084;2022-09-06T01:39:38;21.80;80.80
42097;DHT22;27754;45.414;11.084;2022-09-06T01:42:18;21.80;80.90
42097;DHT22;27754;45.414;11.084;2022-09-06T01:44:55;21.70;81.00
42097;DHT22;27754;45.414;11.084;2022-09-06T01:50:41;21.60;81.40
42097;DHT22;27754;45.414;11.084;2022-09-06T01:53:41;21.50;81.50
42097;DHT22;27754;45.414;11.084;2022-09-06T02:08:30;21.50;80.60
42097;DHT22;27754;45.414;11.084;2022-09-06T02:11:04;21.50;81.10
42097;DHT22;27754;45.414;11.084;2022-09-06T02:13:43;21.70;80.50
42097;DHT22;27754;45.414;11.084;2022-09-06T02:16:12;21.70;80.50
42097;DHT22;27754;45.414;11.084;2022-09-06T02:18:43;21.70;80.40
42097;DHT22;27754;45.414;11.084;2022-09-06T02:21:15;21.60;80.40
42097;DHT22;27754;45.414;11.084;2022-09-06T02:23:45;21.70;80.50
42097;DHT22;27754;45.414;11.084;2022-09-06T02:26:14;21.70;80.20
42097;DHT22;27754;45.414;11.084;2022-09-06T02:28:43;21.60;79.90
42097;DHT22;27754;45.414;11.084;2022-09-06T02:31:21;21.60;80.10
42097;DHT22;27754;45.414;11.084;2022-09-06T02:33:50;21.60;80.40
42097;DHT22;27754;45.414;11.084;2022-09-06T02:36:18;21.50;80.50
42097;DHT22;27754;45.414;11.084;2022-09-06T02:38:45;21.50;80.70
42097;DHT22;27754;45.414;11.084;2022-09-06T02:41:16;21.50;80.70
42097;DHT22;27754;45.414;11.084;2022-09-06T02:43:44;21.50;80.80
42097;DHT22;27754;45.414;11.084;2022-09-06T02:46:11;21.50;81.00
42097;DHT22;27754;45.414;11.084;2022-09-06T02:48:38;21.50;81.10
42097;DHT22;27754;45.414;11.084;2022-09-06T02:51:07;21.40;81.00
42097;DHT22;27754;45.414;11.084;2022-09-06T02:53:34;21.40;81.00
42097;DHT22;27754;45.414;11.084;2022-09-06T02:56:02;21.50;81.10
42097;DHT22;27754;45.414;11.084;2022-09-06T02:58:29;21.40;81.20
42097;DHT22;27754;45.414;11.084;2022-09-06T03:00:56;21.40;81.30
42097;DHT22;27754;45.414;11.084;2022-09-06T03:03:23;21.50;81.10
42097;DHT22;27754;45.414;11.084;2022-09-06T03:05:52;21.60;80.70
42097;DHT22;27754;45.414;11.084;2022-09-06T03:08:21;21.50;80.60
42097;DHT22;27754;45.414;11.084;2022-09-06T03:10:49;21.60;80.60
42097;DHT22;27754;45.414;11.084;2022-09-06T03:13:17;21.50;80.50
42097;DHT22;27754;45.414;11.084;2022-09-06T03:15:47;21.50;80.70
42097;DHT22;27754;45.414;11.084;2022-09-06T03:18:15;21.50;80.90
42097;DHT22;27754;45.414;11.084;2022-09-06T03:20:42;21.50;81.00
42097;DHT22;27754;45.414;11.084;2022-09-06T03:23:08;21.50;81.00
42097;DHT22;27754;45.414;11.084;2022-09-06T03:25:36;21.50;81.10
42097;DHT22;27754;45.414;11.084;2022-09-06T03:28:03;21.40;81.10
42097;DHT22;27754;45.414;11.084;2022-09-06T03:30:30;21.40;81.20
42097;DHT22;27754;45.414;11.084;2022-09-06T03:32:57;21.30;81.50
42097;DHT22;27754;45.414;11.084;2022-09-06T03:35:28;21.30;81.60
42097;DHT22;27754;45.414;11.084;2022-09-06T03:37:55;21.30;81.60
42097;DHT22;27754;45.414;11.084;2022-09-06T03:40:22;21.30;81.60
42097;DHT22;27754;45.414;11.084;2022-09-06T03:42:49;21.30;81.60
42097;DHT22;27754;45.414;11.084;2022-09-06T03:45:16;21.30;81.50
42097;DHT22;27754;45.414;11.084;2022-09-06T03:47:43;21.30;81.40
42097;DHT22;27754;45.414;11.084;2022-09-06T03:50:10;21.30;81.20
42097;DHT22;27754;45.414;11.084;2022-09-06T03:52:37;21.40;81.20
42097;DHT22;27754;45.414;11.084;2022-09-06T03:55:04;21.40;80.90
42097;DHT22;27754;45.414;11.084;2022-09-06T03:57:32;21.40;80.40
42097;DHT22;27754;45.414;11.084;2022-09-06T03:59:59;21.40;80.20
42097;DHT22;27754;45.414;11.084;2022-09-06T04:02:26;21.40;80.00
42097;DHT22;27754;45.414;11.084;2022-09-06T04:04:52;21.30;80.20
42097;DHT22;27754;45.414;11.084;2022-09-06T04:07:21;21.30;80.50
42097;DHT22;27754;45.414;11.084;2022-09-06T04:09:48;21.30;80.50
42097;DHT22;27754;45.414;11.084;2022-09-06T04:12:15;21.30;80.80
42097;DHT22;27754;45.414;11.084;2022-09-06T04:14:42;21.20;81.70
42097;DHT22;27754;45.414;11.084;2022-09-06T04:17:09;21.20;81.80
42097;DHT22;27754;45.414;11.084;2022-09-06T04:19:36;21.30;81.80
42097;DHT22;27754;45.414;11.084;2022-09-06T04:22:03;21.20;81.80
42097;DHT22;27754;45.414;11.084;2022-09-06T04:24:30;21.30;82.00
42097;DHT22;27754;45.414;11.084;2022-09-06T04:26:57;21.20;82.00
42097;DHT22;27754;45.414;11.084;2022-09-06T04:29:24;21.20;82.10
42097;DHT22;27754;45.414;11.084;2022-09-06T04:31:51;21.10;82.20
42097;DHT22;27754;45.414;11.084;2022-09-06T04:34:18;21.10;82.00
42097;DHT22;27754;45.414;11.084;2022-09-06T04:36:45;21.10;82.30
42097;DHT22;27754;45.414;11.084;2022-09-06T04:39:14;21.10;82.80
42097;DHT22;27754;45.414;11.084;2022-09-06T04:41:41;21.10;82.80
42097;DHT22;27754;45.414;11.084;2022-09-06T04:44:08;21.10;82.70
42097;DHT22;27754;45.414;11.084;2022-09-06T04:46:35;21.10;82.60
42097;DHT22;27754;45.414;11.084;2022-09-06T04:49:02;21.10;82.40
42097;DHT22;27754;45.414;11.084;2022-09-06T04:51:29;21.10;82.50
42097;DHT22;27754;45.414;11.084;2022-09-06T04:53:57;21.20;82.30
42097;DHT22;27754;45.414;11.084;2022-09-06T04:56:25;21.30;82.10
42097;DHT22;27754;45.414;11.084;2022-09-06T04:58:53;21.30;82.00
42097;DHT22;27754;45.414;11.084;2022-09-06T05:01:21;21.30;81.90
42097;DHT22;27754;45.414;11.084;2022-09-06T05:03:48;21.30;81.80
42097;DHT22;27754;45.414;11.084;2022-09-06T05:06:20;21.40;81.70
42097;DHT22;27754;45.414;11.084;2022-09-06T05:08:48;21.50;81.20
42097;DHT22;27754;45.414;11.084;2022-09-06T05:11:15;21.50;80.90
42097;DHT22;27754;45.414;11.084;2022-09-06T05:13:42;21.60;80.80
42097;DHT22;27754;45.414;11.084;2022-09-06T05:16:10;21.70;80.00
42097;DHT22;27754;45.414;11.084;2022-09-06T05:18:37;21.80;79.50
42097;DHT22;27754;45.414;11.084;2022-09-06T05:21:04;21.90;79.00
42097;DHT22;27754;45.414;11.084;2022-09-06T05:23:31;21.90;78.90
42097;DHT22;27754;45.414;11.084;2022-09-06T05:25:58;22.00;78.60
42097;DHT22;27754;45.414;11.084;2022-09-06T05:28:25;22.00;78.70
42097;DHT22;27754;45.414;11.084;2022-09-06T05:30:53;22.10;78.60
42097;DHT22;27754;45.414;11.084;2022-09-06T05:33:21;22.10;78.70
42097;DHT22;27754;45.414;11.084;2022-09-06T05:35:48;22.20;78.60
42097;DHT22;27754;45.414;11.084;2022-09-06T05:38:15;22.30;78.60
42097;DHT22;27754;45.414;11.084;2022-09-06T05:40:42;22.30;78.20
42097;DHT22;27754;45.414;11.084;2022-09-06T05:43:09;22.40;78.20
42097;DHT22;27754;45.414;11.084;2022-09-06T05:45:36;22.50;77.80
42097;DHT22;27754;45.414;11.084;2022-09-06T05:48:04;22.60;77.50
42097;DHT22;27754;45.414;11.084;2022-09-06T05:50:31;22.60;77.30
42097;DHT22;27754;45.414;11.084;2022-09-06T05:52:58;22.80;76.80
42097;DHT22;27754;45.414;11.084;2022-09-06T05:55:25;22.90;76.60
42097;DHT22;27754;45.414;11.084;2022-09-06T05:57:52;22.90;76.50
42097;DHT22;27754;45.414;11.084;2022-09-06T06:00:20;23.10;76.20
42097;DHT22;27754;45.414;11.084;2022-09-06T06:02:48;23.20;76.00
42097;DHT22;27754;45.414;11.084;2022-09-06T06:05:15;23.30;75.80
42097;DHT22;27754;45.414;11.084;2022-09-06T06:07:42;23.50;75.40
42097;DHT22;27754;45.414;11.084;2022-09-06T06:10:09;23.60;75.40
42097;DHT22;27754;45.414;11.084;2022-09-06T06:12:36;23.80;75.20
42097;DHT22;27754;45.414;11.084;2022-09-06T06:15:03;23.90;74.60
42097;DHT22;27754;45.414;11.084;2022-09-06T06:17:31;24.10;73.10
42097;DHT22;27754;45.414;11.084;2022-09-06T06:19:58;24.20;72.20
42097;DHT22;27754;45.414;11.084;2022-09-06T06:22:25;24.40;72.10
42097;DHT22;27754;45.414;11.084;2022-09-06T06:24:52;24.60;71.10
42097;DHT22;27754;45.414;11.084;2022-09-06T06:27:19;24.70;70.50
42097;DHT22;27754;45.414;11.084;2022-09-06T06:29:46;24.80;70.00
42097;DHT22;27754;45.414;11.084;2022-09-06T06:32:14;24.90;69.70
42097;DHT22;27754;45.414;11.084;2022-09-06T06:34:40;25.00;69.70
42097;DHT22;27754;45.414;11.084;2022-09-06T06:37:07;25.00;69.80
42097;DHT22;27754;45.414;11.084;2022-09-06T06:39:34;25.40;69.30
42097;DHT22;27754;45.414;11.084;2022-09-06T06:42:01;25.40;68.10
42097;DHT22;27754;45.414;11.084;2022-09-06T06:44:49;25.40;68.30
42097;DHT22;27754;45.414;11.084;2022-09-06T06:47:19;25.60;67.90
42097;DHT22;27754;45.414;11.084;2022-09-06T06:49:46;25.80;67.20
42097;DHT22;27754;45.414;11.084;2022-09-06T06:52:14;25.80;67.20
42097;DHT22;27754;45.414;11.084;2022-09-06T06:54:41;25.90;67.30
42097;DHT22;27754;45.414;11.084;2022-09-06T06:57:08;26.00;66.40
42097;DHT22;27754;45.414;11.084;2022-09-06T06:59:35;26.10;66.00
42097;DHT22;27754;45.414;11.084;2022-09-06T07:02:02;26.00;66.00
42097;DHT22;27754;45.414;11.084;2022-09-06T07:04:29;26.20;65.50
42097;DHT22;27754;45.414;11.084;2022-09-06T07:06:56;26.30;65.40
42097;DHT22;27754;45.414;11.084;2022-09-06T07:09:43;26.30;66.00
42097;DHT22;27754;45.414;11.084;2022-09-06T07:12:30;26.60;66.30
42097;DHT22;27754;45.414;11.084;2022-09-06T07:14:57;26.70;65.40
42097;DHT22;27754;45.414;11.084;2022-09-06T07:17:24;26.60;65.40
42097;DHT22;27754;45.414;11.084;2022-09-06T07:19:51;26.80;65.80
42097;DHT22;27754;45.414;11.084;2022-09-06T07:22:38;26.80;65.30
42097;DHT22;27754;45.414;11.084;2022-09-06T07:25:07;27.00;65.40
42097;DHT22;27754;45.414;11.084;2022-09-06T07:27:34;27.10;65.10
42097;DHT22;27754;45.414;11.084;2022-09-06T07:30:18;27.30;63.50
42097;DHT22;27754;45.414;11.084;2022-09-06T07:32:46;27.50;63.20
42097;DHT22;27754;45.414;11.084;2022-09-06T07:35:13;27.50;62.90
42097;DHT22;27754;45.414;11.084;2022-09-06T07:37:40;27.80;62.70
42097;DHT22;27754;45.414;11.084;2022-09-06T07:40:08;27.80;62.40
42097;DHT22;27754;45.414;11.084;2022-09-06T07:42:35;27.80;62.00
42097;DHT22;27754;45.414;11.084;2022-09-06T07:45:03;27.70;62.00
42097;DHT22;27754;45.414;11.084;2022-09-06T07:47:30;27.80;62.00
42097;DHT22;27754;45.414;11.084;2022-09-06T07:50:17;28.00;62.70
42097;DHT22;27754;45.414;11.084;2022-09-06T07:53:05;28.30;61.40
42097;DHT22;27754;45.414;11.084;2022-09-06T07:55:38;28.30;61.00
42097;DHT22;27754;45.414;11.084;2022-09-06T07:58:05;28.30;62.00
42097;DHT22;27754;45.414;11.084;2022-09-06T08:00:32;28.50;61.70
42097;DHT22;27754;45.414;11.084;2022-09-06T08:02:59;28.70;61.60
42097;DHT22;27754;45.414;11.084;2022-09-06T08:05:26;28.70;60.30
42097;DHT22;27754;45.414;11.084;2022-09-06T08:08:13;28.70;60.70
42097;DHT22;27754;45.414;11.084;2022-09-06T08:11:00;28.80;60.60
42097;DHT22;27754;45.414;11.084;2022-09-06T08:13:27;29.00;59.90
42097;DHT22;27754;45.414;11.084;2022-09-06T08:16:02;29.10;59.50
42097;DHT22;27754;45.414;11.084;2022-09-06T08:18:29;28.90;59.90
42097;DHT22;27754;45.414;11.084;2022-09-06T08:21:05;29.10;59.40
42097;DHT22;27754;45.414;11.084;2022-09-06T08:23:39;28.80;60.10
42097;DHT22;27754;45.414;11.084;2022-09-06T08:26:08;28.90;60.00
42097;DHT22;27754;45.414;11.084;2022-09-06T08:28:35;29.00;60.30
42097;DHT22;27754;45.414;11.084;2022-09-06T08:31:14;29.00;60.40
42097;DHT22;27754;45.414;11.084;2022-09-06T08:33:42;29.10;59.80
42097;DHT22;27754;45.414;11.084;2022-09-06T08:36:10;29.10;60.30
42097;DHT22;27754;45.414;11.084;2022-09-06T08:38:37;29.10;59.90
42097;DHT22;27754;45.414;11.084;2022-09-06T08:43:34;28.80;61.20
42097;DHT22;27754;45.414;11.084;2022-09-06T08:46:01;28.70;60.70
42097;DHT22;27754;45.414;11.084;2022-09-06T08:48:32;28.70;60.70
42097;DHT22;27754;45.414;11.084;2022-09-06T08:51:32;28.50;62.10
42097;DHT22;27754;45.414;11.084;2022-09-06T08:54:27;28.90;61.20
42097;DHT22;27754;45.414;11.084;2022-09-06T08:59:55;28.80;61.80
42097;DHT22;27754;45.414;11.084;2022-09-06T09:02:23;28.80;62.50
42097;DHT22;27754;45.414;11.084;2022-09-06T09:04:59;28.90;61.20
42097;DHT22;27754;45.414;11.084;2022-09-06T09:07:43;29.00;59.90
42097;DHT22;27754;45.414;11.084;2022-09-06T09:10:18;29.10;61.90
42097;DHT22;27754;45.414;11.084;2022-09-06T09:12:47;29.10;61.20
42097;DHT22;27754;45.414;11.084;2022-09-06T09:15:18;29.20;60.90
42097;DHT22;27754;45.414;11.084;2022-09-06T09:17:47;29.20;61.00
42097;DHT22;27754;45.414;11.084;2022-09-06T09:20:15;29.30;60.30
42097;DHT22;27754;45.414;11.084;2022-09-06T09:22:43;29.20;61.40
42097;DHT22;27754;45.414;11.084;2022-09-06T09:25:17;29.00;62.30
42097;DHT22;27754;45.414;11.084;2022-09-06T09:27:45;29.00;61.50
42097;DHT22;27754;45.414;11.084;2022-09-06T09:30:12;29.10;61.20
42097;DHT22;27754;45.414;11.084;2022-09-06T09:32:59;29.10;61.90
42097;DHT22;27754;45.414;11.084;2022-09-06T09:35:30;28.90;61.80
42097;DHT22;27754;45.414;11.084;2022-09-06T09:38:06;28.80;62.20
42097;DHT22;27754;45.414;11.084;2022-09-06T09:43:27;29.00;62.40
42097;DHT22;27754;45.414;11.084;2022-09-06T09:46:27;28.90;62.90
42097;DHT22;27754;45.414;11.084;2022-09-06T09:51:43;29.00;61.50
42097;DHT22;27754;45.414;11.084;2022-09-06T09:54:12;28.90;61.50
42097;DHT22;27754;45.414;11.084;2022-09-06T09:56:50;29.10;62.00
42097;DHT22;27754;45.414;11.084;2022-09-06T09:59:24;29.10;62.50
42097;DHT22;27754;45.414;11.084;2022-09-06T10:02:00;29.10;61.90
42097;DHT22;27754;45.414;11.084;2022-09-06T10:04:35;29.00;62.10
42097;DHT22;27754;45.414;11.084;2022-09-06T10:07:16;29.00;62.20
42097;DHT22;27754;45.414;11.084;2022-09-06T10:10:05;29.10;62.30
42097;DHT22;27754;45.414;11.084;2022-09-06T10:12:38;29.10;62.80
42097;DHT22;27754;45.414;11.084;2022-09-06T10:15:10;29.30;63.10
42097;DHT22;27754;45.414;11.084;2022-09-06T10:17:48;29.40;61.80
42097;DHT22;27754;45.414;11.084;2022-09-06T10:20:15;29.30;59.50
42097;DHT22;27754;45.414;11.084;2022-09-06T10:23:05;29.40;59.40
42097;DHT22;27754;45.414;11.084;2022-09-06T10:36:39;29.10;60.50
42097;DHT22;27754;45.414;11.084;2022-09-06T10:39:28;29.30;59.90
42097;DHT22;27754;45.414;11.084;2022-09-06T10:42:03;29.40;60.70
42097;DHT22;27754;45.414;11.084;2022-09-06T10:47:12;29.60;59.60
42097;DHT22;27754;45.414;11.084;2022-09-06T10:49:43;29.70;59.20
42097;DHT22;27754;45.414;11.084;2022-09-06T10:52:16;29.70;59.70
42097;DHT22;27754;45.414;11.084;2022-09-06T10:54:44;29.70;59.40
42097;DHT22;27754;45.414;11.084;2022-09-06T10:57:17;29.70;59.60
42097;DHT22;27754;45.414;11.084;2022-09-06T11:00:08;29.70;58.70
42097;DHT22;27754;45.414;11.084;2022-09-06T11:02:55;29.80;57.80
42097;DHT22;27754;45.414;11.084;2022-09-06T11:05:54;29.90;57.50
42097;DHT22;27754;45.414;11.084;2022-09-06T11:08:57;29.90;56.40
42097;DHT22;27754;45.414;11.084;2022-09-06T11:11:38;29.90;57.40
42097;DHT22;27754;45.414;11.084;2022-09-06T11:14:10;29.80;56.30
42097;DHT22;27754;45.414;11.084;2022-09-06T11:16:50;29.80;57.30
42097;DHT22;27754;45.414;11.084;2022-09-06T11:19:54;29.80;56.70
42097;DHT22;27754;45.414;11.084;2022-09-06T11:28:57;29.90;57.20
42097;DHT22;27754;45.414;11.084;2022-09-06T11:31:33;29.80;56.70
42097;DHT22;27754;45.414;11.084;2022-09-06T11:34:28;30.00;57.90
42097;DHT22;27754;45.414;11.084;2022-09-06T11:37:01;30.00;56.90
42097;DHT22;27754;45.414;11.084;2022-09-06T11:39:40;30.00;57.10
42097;DHT22;27754;45.414;11.084;2022-09-06T11:53:34;30.20;57.50
42097;DHT22;27754;45.414;11.084;2022-09-06T11:59:03;30.20;57.90
42097;DHT22;27754;45.414;11.084;2022-09-06T12:01:34;30.30;56.70
42097;DHT22;27754;45.414;11.084;2022-09-06T12:04:04;30.30;56.70
42097;DHT22;27754;45.414;11.084;2022-09-06T12:06:42;30.40;56.10
42097;DHT22;27754;45.414;11.084;2022-09-06T12:09:31;30.30;55.20
42097;DHT22;27754;45.414;11.084;2022-09-06T12:11:59;30.30;56.20
42097;DHT22;27754;45.414;11.084;2022-09-06T12:14:39;30.40;56.20
42097;DHT22;27754;45.414;11.084;2022-09-06T12:19:56;30.50;55.70
42097;DHT22;27754;45.414;11.084;2022-09-06T12:25:01;30.60;54.50
42097;DHT22;27754;45.414;11.084;2022-09-06T12:27:31;30.50;54.70
42097;DHT22;27754;45.414;11.084;2022-09-06T12:30:05;30.60;54.10
42097;DHT22;27754;45.414;11.084;2022-09-06T12:32:39;30.60;53.80
42097;DHT22;27754;45.414;11.084;2022-09-06T12:35:26;30.60;54.10
42097;DHT22;27754;45.414;11.084;2022-09-06T12:38:14;30.30;54.40
42097;DHT22;27754;45.414;11.084;2022-09-06T12:40:47;30.30;54.40
42097;DHT22;27754;45.414;11.084;2022-09-06T12:43:18;30.40;54.40
42097;DHT22;27754;45.414;11.084;2022-09-06T12:45:50;30.40;54.90
42097;DHT22;27754;45.414;11.084;2022-09-06T12:51:03;30.60;55.50
42097;DHT22;27754;45.414;11.084;2022-09-06T12:53:31;30.80;54.60
42097;DHT22;27754;45.414;11.084;2022-09-06T12:56:08;30.80;52.90
42097;DHT22;27754;45.414;11.084;2022-09-06T12:58:36;30.80;53.20
42097;DHT22;27754;45.414;11.084;2022-09-06T13:01:26;30.90;53.70
42097;DHT22;27754;45.414;11.084;2022-09-06T13:04:00;31.00;52.90
42097;DHT22;27754;45.414;11.084;2022-09-06T13:06:31;31.20;52.70
42097;DHT22;27754;45.414;11.084;2022-09-06T13:09:00;31.30;52.80
42097;DHT22;27754;45.414;11.084;2022-09-06T13:11:34;31.30;53.30
42097;DHT22;27754;45.414;11.084;2022-09-06T13:14:09;31.30;52.70
42097;DHT22;27754;45.414;11.084;2022-09-06T13:16:48;31.30;52.70
42097;DHT22;27754;45.414;11.084;2022-09-06T13:19:39;31.30;52.30
42097;DHT22;27754;45.414;11.084;2022-09-06T13:22:08;31.30;52.60
42097;DHT22;27754;45.414;11.084;2022-09-06T13:24:43;31.30;52.20
42097;DHT22;27754;45.414;11.084;2022-09-06T13:27:22;31.20;52.50
42097;DHT22;27754;45.414;11.084;2022-09-06T13:30:02;31.30;53.00
42097;DHT22;27754;45.414;11.084;2022-09-06T13:32:29;31.30;52.40
42097;DHT22;27754;45.414;11.084;2022-09-06T13:34:58;31.40;50.80
42097;DHT22;27754;45.414;11.084;2022-09-06T13:37:27;31.40;51.40
42097;DHT22;27754;45.414;11.084;2022-09-06T13:39:55;31.50;50.80
42097;DHT22;27754;45.414;11.084;2022-09-06T13:42:31;31.40;49.50
42097;DHT22;27754;45.414;11.084;2022-09-06T13:45:19;31.30;50.90
42097;DHT22;27754;45.414;11.084;2022-09-06T13:47:47;31.40;50.40
42097;DHT22;27754;45.414;11.084;2022-09-06T13:50:14;31.40;50.70
42097;DHT22;27754;45.414;11.084;2022-09-06T13:52:41;31.40;50.70
42097;DHT22;27754;45.414;11.084;2022-09-06T13:55:15;31.20;50.50
42097;DHT22;27754;45.414;11.084;2022-09-06T13:57:42;31.20;51.30
42097;DHT22;27754;45.414;11.084;2022-09-06T14:00:10;31.40;51.20
42097;DHT22;27754;45.414;11.084;2022-09-06T14:02:42;31.40;51.20
42097;DHT22;27754;45.414;11.084;2022-09-06T14:05:09;31.30;51.20
42097;DHT22;27754;45.414;11.084;2022-09-06T14:07:36;31.50;51.00
42097;DHT22;27754;45.414;11.084;2022-09-06T14:10:03;31.50;51.60
42097;DHT22;27754;45.414;11.084;2022-09-06T14:12:30;31.60;50.20
42097;DHT22;27754;45.414;11.084;2022-09-06T14:14:59;31.60;50.20
42097;DHT22;27754;45.414;11.084;2022-09-06T14:17:26;31.60;50.40
42097;DHT22;27754;45.414;11.084;2022-09-06T14:19:53;31.50;50.50
42097;DHT22;27754;45.414;11.084;2022-09-06T14:22:20;31.50;50.00
42097;DHT22;27754;45.414;11.084;2022-09-06T14:24:47;31.50;49.70
42097;DHT22;27754;45.414;11.084;2022-09-06T14:27:15;31.50;49.60
42097;DHT22;27754;45.414;11.084;2022-09-06T14:29:42;31.50;50.10
42097;DHT22;27754;45.414;11.084;2022-09-06T14:32:09;31.60;50.10
42097;DHT22;27754;45.414;11.084;2022-09-06T14:34:36;31.70;49.60
42097;DHT22;27754;45.414;11.084;2022-09-06T14:37:03;31.70;49.80
42097;DHT22;27754;45.414;11.084;2022-09-06T14:39:30;31.70;50.00
42097;DHT22;27754;45.414;11.084;2022-09-06T14:41:57;31.60;49.90
42097;DHT22;27754;45.414;11.084;2022-09-06T14:44:24;31.70;50.30
42097;DHT22;27754;45.414;11.084;2022-09-06T14:46:51;31.70;50.60
42097;DHT22;27754;45.414;11.084;2022-09-06T14:49:20;31.70;50.30
42097;DHT22;27754;45.414;11.084;2022-09-06T14:51:47;31.80;50.10
42097;DHT22;27754;45.414;11.084;2022-09-06T14:54:14;31.60;50.00
42097;DHT22;27754;45.414;11.084;2022-09-06T14:56:42;31.60;50.30
42097;DHT22;27754;45.414;11.084;2022-09-06T14:59:10;31.60;50.80
42097;DHT22;27754;45.414;11.084;2022-09-06T15:01:38;31.50;50.20
42097;DHT22;27754;45.414;11.084;2022-09-06T15:04:07;31.70;49.70
42097;DHT22;27754;45.414;11.084;2022-09-06T15:06:36;31.60;49.60
42097;DHT22;27754;45.414;11.084;2022-09-06T15:09:05;31.40;49.90
42097;DHT22;27754;45.414;11.084;2022-09-06T15:11:42;31.30;49.90
42097;DHT22;27754;45.414;11.084;2022-09-06T15:16:49;31.50;48.90
42097;DHT22;27754;45.414;11.084;2022-09-06T15:19:23;31.40;48.90
42097;DHT22;27754;45.414;11.084;2022-09-06T15:21:50;31.40;48.60
42097;DHT22;27754;45.414;11.084;2022-09-06T15:24:18;31.50;48.90
42097;DHT22;27754;45.414;11.084;2022-09-06T15:26:45;31.50;49.00
42097;DHT22;27754;45.414;11.084;2022-09-06T15:29:13;31.40;49.70
42097;DHT22;27754;45.414;11.084;2022-09-06T15:31:41;31.40;49.60
42097;DHT22;27754;45.414;11.084;2022-09-06T15:34:09;31.40;48.90
42097;DHT22;27754;45.414;11.084;2022-09-06T15:36:38;31.30;49.90
42097;DHT22;27754;45.414;11.084;2022-09-06T15:39:05;31.30;49.80
42097;DHT22;27754;45.414;11.084;2022-09-06T15:41:34;31.30;49.70
42097;DHT22;27754;45.414;11.084;2022-09-06T15:44:10;31.10;49.70
42097;DHT22;27754;45.414;11.084;2022-09-06T15:46:50;31.10;49.60
42097;DHT22;27754;45.414;11.084;2022-09-06T15:49:22;31.10;49.70
42097;DHT22;27754;45.414;11.084;2022-09-06T15:51:55;31.10;49.50
42097;DHT22;27754;45.414;11.084;2022-09-06T15:54:22;31.10;49.70
42097;DHT22;27754;45.414;11.084;2022-09-06T15:57:08;31.00;49.80
42097;DHT22;27754;45.414;11.084;2022-09-06T15:59:35;30.80;50.00
42097;DHT22;27754;45.414;11.084;2022-09-06T16:02:02;30.80;50.20
42097;DHT22;27754;45.414;11.084;2022-09-06T16:04:29;30.80;50.10
42097;DHT22;27754;45.414;11.084;2022-09-06T16:06:56;30.80;50.20
42097;DHT22;27754;45.414;11.084;2022-09-06T16:09:23;30.70;50.80
42097;DHT22;27754;45.414;11.084;2022-09-06T16:11:50;30.60;50.60
42097;DHT22;27754;45.414;11.084;2022-09-06T16:14:17;30.50;50.90
42097;DHT22;27754;45.414;11.084;2022-09-06T16:16:45;30.40;51.60
42097;DHT22;27754;45.414;11.084;2022-09-06T16:19:12;30.40;51.90
42097;DHT22;27754;45.414;11.084;2022-09-06T16:21:41;30.30;52.30
42097;DHT22;27754;45.414;11.084;2022-09-06T16:24:11;30.30;53.00
42097;DHT22;27754;45.414;11.084;2022-09-06T16:26:43;30.30;53.70
42097;DHT22;27754;45.414;11.084;2022-09-06T16:29:12;30.20;54.10
42097;DHT22;27754;45.414;11.084;2022-09-06T16:31:39;30.10;54.60
42097;DHT22;27754;45.414;11.084;2022-09-06T16:34:08;30.00;54.70
42097;DHT22;27754;45.414;11.084;2022-09-06T16:36:35;30.00;54.70
42097;DHT22;27754;45.414;11.084;2022-09-06T16:39:03;29.90;54.70
42097;DHT22;27754;45.414;11.084;2022-09-06T16:41:36;29.90;54.50
42097;DHT22;27754;45.414;11.084;2022-09-06T16:44:05;29.80;54.90
42097;DHT22;27754;45.414;11.084;2022-09-06T16:46:33;29.80;55.20
42097;DHT22;27754;45.414;11.084;2022-09-06T16:49:00;29.70;55.30
42097;DHT22;27754;45.414;11.084;2022-09-06T16:51:29;29.70;55.60
42097;DHT22;27754;45.414;11.084;2022-09-06T16:53:58;29.60;55.70
42097;DHT22;27754;45.414;11.084;2022-09-06T16:56:28;29.60;55.60
42097;DHT22;27754;45.414;11.084;2022-09-06T16:58:59;29.50;55.50
42097;DHT22;27754;45.414;11.084;2022-09-06T17:01:27;29.40;55.80
42097;DHT22;27754;45.414;11.084;2022-09-06T17:03:55;29.40;56.20
42097;DHT22;27754;45.414;11.084;2022-09-06T17:06:23;29.30;56.60
42097;DHT22;27754;45.414;11.084;2022-09-06T17:08:50;29.30;56.70